sensor_id;sensor_type;location;lat;lon;timestamp;pressure;altitude;pressure_sealevel;temperature;humidity
49723;BME280;43484;43.608;1.458;2024-01-30T00:02:16;100624.63;;;11.37;100.00
49723;BME280;43484;43.608;1.458;2024-01-30T00:04:43;100620.28;;;11.34;100.00
49723;BME280;43484;43.608;1.458;2024-01-30T00:07:09;100619.34;;;11.32;100.00
49723;BME280;43484;43.608;1.458;2024-01-30T00:09:37;100617.34;;;11.25;100.00
49723;BME280;43484;43.608;1.458;2024-01-30T00:12:06;100616.53;;;11.26;100.00
49723;BME280;43484;43.608;1.458;2024-01-30T00:14:32;100616.50;;;11.25;100.00
49723;BME280;43484;43.608;1.458;2024-01-30T00:16:59;100621.72;;;11.28;100.00
49723;BME280;43484;43.608;1.458;2024-01-30T00:19:26;100623.41;;;11.27;100.00
49723;BME280;43484;43.608;1.458;2024-01-30T00:21:52;100609.00;;;11.31;100.00
49723;BME280;43484;43.608;1.458;2024-01-30T00:24:19;100609.91;;;11.31;100.00
49723;BME280;43484;43.608;1.458;2024-01-30T00:26:46;100609.59;;;11.24;100.00
49723;BME280;43484;43.608;1.458;2024-01-30T00:29:13;100607.69;;;11.18;100.00
49723;BME280;43484;43.608;1.458;2024-01-30T00:31:45;100612.22;;;11.25;100.00
49723;BME280;43484;43.608;1.458;2024-01-30T00:34:12;100599.22;;;11.21;100.00
49723;BME280;43484;43.608;1.458;2024-01-30T00:36:39;100599.31;;;11.24;100.00
49723;BME280;43484;43.608;1.458;2024-01-30T00:39:05;100606.81;;;11.18;100.00
49723;BME280;43484;43.608;1.458;2024-01-30T00:41:35;100600.72;;;11.16;100.00
49723;BME280;43484;43.608;1.458;2024-01-30T00:44:01;100601.63;;;11.16;100.00
49723;BME280;43484;43.608;1.458;2024-01-30T00:46:28;100612.59;;;11.14;100.00
49723;BME280;43484;43.608;1.458;2024-01-30T00:48:54;100612.38;;;11.08;100.00
49723;BME280;43484;43.608;1.458;2024-01-30T00:51:21;100610.88;;;11.13;100.00
49723;BME280;43484;43.608;1.458;2024-01-30T00:53:48;100616.00;;;11.13;100.00
49723;BME280;43484;43.608;1.458;2024-01-30T00:56:14;100602.56;;;11.18;100.00
49723;BME280;43484;43.608;1.458;2024-01-30T00:58:44;100600.00;;;11.18;100.00
49723;BME280;43484;43.608;1.458;2024-01-30T01:01:11;100599.91;;;11.17;100.00
49723;BME280;43484;43.608;1.458;2024-01-30T01:03:38;100598.09;;;11.14;100.00
49723;BME280;43484;43.608;1.458;2024-01-30T01:06:07;100594.59;;;11.12;100.00
49723;BME280;43484;43.608;1.458;2024-01-30T01:08:34;100594.53;;;11.11;100.00
49723;BME280;43484;43.608;1.458;2024-01-30T01:11:00;100610.88;;;11.13;100.00
49723;BME280;43484;43.608;1.458;2024-01-30T01:13:27;100611.56;;;11.09;100.00
49723;BME280;43484;43.608;1.458;2024-01-30T01:15:54;100609.88;;;11.09;100.00
49723;BME280;43484;43.608;1.458;2024-01-30T01:18:21;100606.63;;;11.13;100.00
49723;BME280;43484;43.608;1.458;2024-01-30T01:20:48;100605.47;;;11.07;100.00
49723;BME280;43484;43.608;1.458;2024-01-30T01:23:14;100596.88;;;11.05;100.00
49723;BME280;43484;43.608;1.458;2024-01-30T01:25:41;100605.56;;;11.08;100.00
49723;BME280;43484;43.608;1.458;2024-01-30T01:28:07;100610.09;;;11.15;100.00
49723;BME280;43484;43.608;1.458;2024-01-30T01:30:34;100605.63;;;11.10;100.00
49723;BME280;43484;43.608;1.458;2024-01-30T01:33:02;100605.56;;;11.08;100.00
49723;BME280;43484;43.608;1.458;2024-01-30T01:35:29;100609.03;;;11.10;100.00
49723;BME280;43484;43.608;1.458;2024-01-30T01:37:55;100612.38;;;11.08;100.00
49723;BME280;43484;43.608;1.458;2024-01-30T01:40:26;100605.63;;;11.10;100.00
49723;BME280;43484;43.608;1.458;2024-01-30T01:42:56;100606.47;;;11.10;100.00
49723;BME280;43484;43.608;1.458;2024-01-30T01:45:23;100609.75;;;11.06;100.00
49723;BME280;43484;43.608;1.458;2024-01-30T01:47:52;100610.63;;;11.07;100.00
49723;BME280;43484;43.608;1.458;2024-01-30T01:50:23;100610.63;;;11.07;100.00
49723;BME280;43484;43.608;1.458;2024-01-30T01:52:52;100605.69;;;11.11;100.00
49723;BME280;43484;43.608;1.458;2024-01-30T01:55:21;100607.38;;;11.11;100.00
49723;BME280;43484;43.608;1.458;2024-01-30T01:57:48;100611.50;;;11.07;100.00
49723;BME280;43484;43.608;1.458;2024-01-30T02:00:16;100613.94;;;11.04;100.00
49723;BME280;43484;43.608;1.458;2024-01-30T02:02:43;100614.31;;;11.13;100.00
49723;BME280;43484;43.608;1.458;2024-01-30T02:05:11;100599.91;;;11.17;100.00
49723;BME280;43484;43.608;1.458;2024-01-30T02:07:38;100602.25;;;11.11;100.00
49723;BME280;43484;43.608;1.458;2024-01-30T02:10:07;100600.66;;;11.14;100.00
49723;BME280;43484;43.608;1.458;2024-01-30T02:12:34;100594.72;;;11.15;100.00
49723;BME280;43484;43.608;1.458;2024-01-30T02:15:01;100597.72;;;11.05;100.00
49723;BME280;43484;43.608;1.458;2024-01-30T02:17:27;100594.50;;;11.09;100.00
49723;BME280;43484;43.608;1.458;2024-01-30T02:19:54;100595.59;;;11.16;100.00
49723;BME280;43484;43.608;1.458;2024-01-30T02:22:21;100593.09;;;11.17;100.00
49723;BME280;43484;43.608;1.458;2024-01-30T02:24:49;100596.13;;;11.07;100.00
49723;BME280;43484;43.608;1.458;2024-01-30T02:27:15;100592.97;;;11.14;100.00
49723;BME280;43484;43.608;1.458;2024-01-30T02:29:42;100589.47;;;11.12;100.00
49723;BME280;43484;43.608;1.458;2024-01-30T02:32:09;100592.16;;;11.15;100.00
49723;BME280;43484;43.608;1.458;2024-01-30T02:34:35;100594.88;;;11.18;100.00
49723;BME280;43484;43.608;1.458;2024-01-30T02:37:02;100596.38;;;11.13;100.00
49723;BME280;43484;43.608;1.458;2024-01-30T02:39:29;100593.81;;;11.13;100.00
49723;BME280;43484;43.608;1.458;2024-01-30T02:41:56;100599.91;;;11.17;100.00
49723;BME280;43484;43.608;1.458;2024-01-30T02:44:24;100590.31;;;11.11;100.00
49723;BME280;43484;43.608;1.458;2024-01-30T02:46:50;100603.97;;;11.12;100.00
49723;BME280;43484;43.608;1.458;2024-01-30T02:49:17;100609.03;;;11.10;100.00
49723;BME280;43484;43.608;1.458;2024-01-30T02:51:43;100607.53;;;11.15;100.00
49723;BME280;43484;43.608;1.458;2024-01-30T02:54:10;100611.00;;;11.16;100.00
49723;BME280;43484;43.608;1.458;2024-01-30T02:56:37;100602.34;;;11.14;100.00
49723;BME280;43484;43.608;1.458;2024-01-30T02:59:03;100598.00;;;11.11;100.00
49723;BME280;43484;43.608;1.458;2024-01-30T03:01:30;100610.88;;;11.13;100.00
49723;BME280;43484;43.608;1.458;2024-01-30T03:03:58;100595.66;;;11.17;100.00
49723;BME280;43484;43.608;1.458;2024-01-30T03:06:25;100596.50;;;11.16;100.00
49723;BME280;43484;43.608;1.458;2024-01-30T03:08:52;100604.34;;;11.21;100.00
49723;BME280;43484;43.608;1.458;2024-01-30T03:11:18;100600.72;;;11.16;100.00
49723;BME280;43484;43.608;1.458;2024-01-30T03:13:45;100595.53;;;11.14;100.00
49723;BME280;43484;43.608;1.458;2024-01-30T03:16:12;100594.09;;;11.21;100.00
49723;BME280;43484;43.608;1.458;2024-01-30T03:18:38;100595.72;;;11.19;100.00
49723;BME280;43484;43.608;1.458;2024-01-30T03:21:05;100599.06;;;11.16;100.00
49723;BME280;43484;43.608;1.458;2024-01-30T03:23:32;100597.22;;;11.14;100.00
49723;BME280;43484;43.608;1.458;2024-01-30T03:25:59;100603.13;;;11.11;100.00
49723;BME280;43484;43.608;1.458;2024-01-30T03:28:25;100601.19;;;11.06;100.00
49723;BME280;43484;43.608;1.458;2024-01-30T03:30:52;100607.88;;;11.02;100.00
49723;BME280;43484;43.608;1.458;2024-01-30T03:33:19;100611.50;;;11.07;100.00
49723;BME280;43484;43.608;1.458;2024-01-30T03:35:45;100607.25;;;11.08;100.00
49723;BME280;43484;43.608;1.458;2024-01-30T03:38:12;100602.75;;;11.02;100.00
49723;BME280;43484;43.608;1.458;2024-01-30T03:40:39;100608.66;;;11.00;100.00
49723;BME280;43484;43.608;1.458;2024-01-30T03:43:05;100607.75;;;10.99;100.00
49723;BME280;43484;43.608;1.458;2024-01-30T03:45:32;100616.28;;;10.98;100.00
49723;BME280;43484;43.608;1.458;2024-01-30T03:47:59;100624.53;;;10.91;100.00
49723;BME280;43484;43.608;1.458;2024-01-30T03:50:25;100623.03;;;10.96;100.00
49723;BME280;43484;43.608;1.458;2024-01-30T03:52:52;100628.66;;;10.88;100.00
49723;BME280;43484;43.608;1.458;2024-01-30T03:55:19;100625.91;;;10.83;100.00
49723;BME280;43484;43.608;1.458;2024-01-30T03:57:46;100633.66;;;10.85;100.00
49723;BME280;43484;43.608;1.458;2024-01-30T04:00:14;100638.97;;;10.89;100.00
49723;BME280;43484;43.608;1.458;2024-01-30T04:02:40;100634.72;;;10.90;100.00
49723;BME280;43484;43.608;1.458;2024-01-30T04:05:07;100633.59;;;10.83;100.00
49723;BME280;43484;43.608;1.458;2024-01-30T04:07:34;100627.03;;;10.90;100.00
49723;BME280;43484;43.608;1.458;2024-01-30T04:10:01;100626.66;;;10.81;100.00
49723;BME280;43484;43.608;1.458;2024-01-30T04:12:27;100626.03;;;10.86;100.00
49723;BME280;43484;43.608;1.458;2024-01-30T04:14:54;100626.81;;;10.85;100.00
49723;BME280;43484;43.608;1.458;2024-01-30T04:17:21;100631.09;;;10.85;100.00
49723;BME280;43484;43.608;1.458;2024-01-30T04:19:47;100634.50;;;10.85;100.00
49723;BME280;43484;43.608;1.458;2024-01-30T04:22:14;100630.50;;;10.92;100.00
49723;BME280;43484;43.608;1.458;2024-01-30T04:24:41;100632.72;;;10.83;100.00
49723;BME280;43484;43.608;1.458;2024-01-30T04:27:07;100634.03;;;10.73;100.00
49723;BME280;43484;43.608;1.458;2024-01-30T04:29:34;100641.84;;;10.76;100.00
49723;BME280;43484;43.608;1.458;2024-01-30T04:32:01;100646.91;;;10.75;100.00
49723;BME280;43484;43.608;1.458;2024-01-30T04:34:28;100650.22;;;10.72;100.00
49723;BME280;43484;43.608;1.458;2024-01-30T04:36:55;100661.88;;;10.66;100.00
49723;BME280;43484;43.608;1.458;2024-01-30T04:39:21;100666.91;;;10.63;100.00
49723;BME280;43484;43.608;1.458;2024-01-30T04:41:48;100666.84;;;10.61;100.00
49723;BME280;43484;43.608;1.458;2024-01-30T04:44:14;100672.00;;;10.63;100.00
49723;BME280;43484;43.608;1.458;2024-01-30T04:46:41;100676.25;;;10.62;100.00
49723;BME280;43484;43.608;1.458;2024-01-30T04:49:08;100670.00;;;10.56;100.00
49723;BME280;43484;43.608;1.458;2024-01-30T04:51:35;100678.56;;;10.56;100.00
49723;BME280;43484;43.608;1.458;2024-01-30T04:54:01;100678.50;;;10.55;100.00
49723;BME280;43484;43.608;1.458;2024-01-30T04:56:28;100684.41;;;10.54;100.00
49723;BME280;43484;43.608;1.458;2024-01-30T04:58:55;100682.41;;;10.47;100.00
49723;BME280;43484;43.608;1.458;2024-01-30T05:01:21;100697.16;;;10.52;100.00
49723;BME280;43484;43.608;1.458;2024-01-30T05:03:48;100700.50;;;10.50;100.00
49723;BME280;43484;43.608;1.458;2024-01-30T05:06:24;100702.16;;;10.49;100.00
49723;BME280;43484;43.608;1.458;2024-01-30T05:08:51;100705.19;;;10.41;100.00
49723;BME280;43484;43.608;1.458;2024-01-30T05:11:18;100705.31;;;10.44;100.00
49723;BME280;43484;43.608;1.458;2024-01-30T05:13:45;100701.41;;;10.52;100.00
49723;BME280;43484;43.608;1.458;2024-01-30T05:16:12;100706.63;;;10.53;100.00
49723;BME280;43484;43.608;1.458;2024-01-30T05:18:39;100704.25;;;10.58;100.00
49723;BME280;43484;43.608;1.458;2024-01-30T05:21:06;100707.88;;;10.63;100.00
49723;BME280;43484;43.608;1.458;2024-01-30T05:23:34;100712.00;;;10.59;100.00
49723;BME280;43484;43.608;1.458;2024-01-30T05:26:00;100713.56;;;10.56;100.00
49723;BME280;43484;43.608;1.458;2024-01-30T05:28:28;100721.03;;;10.51;100.00
49723;BME280;43484;43.608;1.458;2024-01-30T05:30:56;100715.50;;;10.42;100.00
49723;BME280;43484;43.608;1.458;2024-01-30T05:33:23;100722.19;;;10.39;100.00
49723;BME280;43484;43.608;1.458;2024-01-30T05:35:49;100723.31;;;10.45;100.00
49723;BME280;43484;43.608;1.458;2024-01-30T05:38:16;100715.56;;;10.44;100.00
49723;BME280;43484;43.608;1.458;2024-01-30T05:40:43;100719.56;;;10.37;100.00
49723;BME280;43484;43.608;1.458;2024-01-30T05:43:09;100716.88;;;10.34;100.00
49723;BME280;43484;43.608;1.458;2024-01-30T05:45:36;100722.13;;;10.37;100.00
49723;BME280;43484;43.608;1.458;2024-01-30T05:48:03;100712.22;;;10.45;100.00
49723;BME280;43484;43.608;1.458;2024-01-30T05:50:30;100707.81;;;10.42;100.00
49723;BME280;43484;43.608;1.458;2024-01-30T05:52:57;100701.09;;;10.44;100.00
49723;BME280;43484;43.608;1.458;2024-01-30T05:55:24;100703.66;;;10.44;100.00
49723;BME280;43484;43.608;1.458;2024-01-30T05:57:51;100703.00;;;10.48;100.00
49723;BME280;43484;43.608;1.458;2024-01-30T06:00:19;100705.63;;;10.50;100.00
49723;BME280;43484;43.608;1.458;2024-01-30T06:02:45;100703.78;;;10.47;100.00
49723;BME280;43484;43.608;1.458;2024-01-30T06:05:12;100706.34;;;10.47;100.00
49723;BME280;43484;43.608;1.458;2024-01-30T06:07:39;100712.72;;;10.57;100.00
49723;BME280;43484;43.608;1.458;2024-01-30T06:10:06;100711.94;;;10.58;100.00
49723;BME280;43484;43.608;1.458;2024-01-30T06:12:34;100716.00;;;10.53;100.00
49723;BME280;43484;43.608;1.458;2024-01-30T06:15:01;100719.50;;;10.55;100.00
49723;BME280;43484;43.608;1.458;2024-01-30T06:17:28;100722.19;;;10.58;100.00
49723;BME280;43484;43.608;1.458;2024-01-30T06:19:55;100722.91;;;10.55;100.00
49723;BME280;43484;43.608;1.458;2024-01-30T06:22:22;100728.50;;;10.66;100.00
49723;BME280;43484;43.608;1.458;2024-01-30T06:24:49;100731.19;;;10.69;100.00
49723;BME280;43484;43.608;1.458;2024-01-30T06:27:15;100732.97;;;10.70;100.00
49723;BME280;43484;43.608;1.458;2024-01-30T06:29:45;100733.88;;;10.72;100.00
49723;BME280;43484;43.608;1.458;2024-01-30T06:32:12;100725.88;;;10.64;100.00
49723;BME280;43484;43.608;1.458;2024-01-30T06:34:40;100726.56;;;10.60;100.00
49723;BME280;43484;43.608;1.458;2024-01-30T06:37:08;100735.94;;;10.60;100.00
49723;BME280;43484;43.608;1.458;2024-01-30T06:39:34;100747.69;;;10.55;100.00
49723;BME280;43484;43.608;1.458;2024-01-30T06:42:01;100755.56;;;10.59;100.00
49723;BME280;43484;43.608;1.458;2024-01-30T06:44:27;100759.31;;;10.67;100.00
49723;BME280;43484;43.608;1.458;2024-01-30T06:46:58;100761.34;;;10.74;100.00
49723;BME280;43484;43.608;1.458;2024-01-30T06:49:25;100771.13;;;10.64;100.00
49723;BME280;43484;43.608;1.458;2024-01-30T06:51:52;100767.84;;;10.66;100.00
49723;BME280;43484;43.608;1.458;2024-01-30T06:54:19;100766.88;;;10.64;100.00
49723;BME280;43484;43.608;1.458;2024-01-30T06:56:45;100757.59;;;10.66;100.00
49723;BME280;43484;43.608;1.458;2024-01-30T06:59:12;100770.47;;;10.68;100.00
49723;BME280;43484;43.608;1.458;2024-01-30T07:01:39;100772.00;;;10.64;100.00
49723;BME280;43484;43.608;1.458;2024-01-30T07:04:06;100770.94;;;10.59;100.00
49723;BME280;43484;43.608;1.458;2024-01-30T07:06:32;100770.66;;;10.53;100.00
49723;BME280;43484;43.608;1.458;2024-01-30T07:08:59;100773.56;;;10.61;100.00
49723;BME280;43484;43.608;1.458;2024-01-30T07:11:25;100768.50;;;10.62;100.00
49723;BME280;43484;43.608;1.458;2024-01-30T07:13:53;100778.81;;;10.64;100.00
49723;BME280;43484;43.608;1.458;2024-01-30T07:16:20;100785.06;;;10.70;100.00
49723;BME280;43484;43.608;1.458;2024-01-30T07:18:47;100773.41;;;10.77;100.00
49723;BME280;43484;43.608;1.458;2024-01-30T07:21:14;100775.84;;;10.74;100.00
49723;BME280;43484;43.608;1.458;2024-01-30T07:23:41;100780.44;;;10.81;100.00
49723;BME280;43484;43.608;1.458;2024-01-30T07:26:09;100783.75;;;10.78;100.00
49723;BME280;43484;43.608;1.458;2024-01-30T07:28:35;100791.03;;;10.69;100.00
49723;BME280;43484;43.608;1.458;2024-01-30T07:31:02;100792.28;;;10.79;100.00
49723;BME280;43484;43.608;1.458;2024-01-30T07:33:29;100789.59;;;10.76;100.00
49723;BME280;43484;43.608;1.458;2024-01-30T07:35:56;100789.53;;;10.74;100.00
49723;BME280;43484;43.608;1.458;2024-01-30T07:38:24;100795.63;;;10.76;100.00
49723;BME280;43484;43.608;1.458;2024-01-30T07:40:50;100797.47;;;10.80;100.00
49723;BME280;43484;43.608;1.458;2024-01-30T07:43:17;100801.53;;;10.75;100.00
49723;BME280;43484;43.608;1.458;2024-01-30T07:45:44;100800.81;;;10.78;100.00
49723;BME280;43484;43.608;1.458;2024-01-30T07:48:11;100801.06;;;10.84;100.00
49723;BME280;43484;43.608;1.458;2024-01-30T07:50:37;100806.53;;;10.91;100.00
49723;BME280;43484;43.608;1.458;2024-01-30T07:53:04;100826.03;;;10.88;100.00
49723;BME280;43484;43.608;1.458;2024-01-30T07:55:54;100827.69;;;10.87;100.00
49723;BME280;43484;43.608;1.458;2024-01-30T07:58:20;100836.41;;;10.91;100.00
49723;BME280;43484;43.608;1.458;2024-01-30T08:00:47;100833.91;;;10.92;100.00
49723;BME280;43484;43.608;1.458;2024-01-30T08:03:14;100835.50;;;10.90;100.00
49723;BME280;43484;43.608;1.458;2024-01-30T08:05:42;100833.38;;;10.99;100.00
49723;BME280;43484;43.608;1.458;2024-01-30T08:08:09;100831.81;;;11.03;100.00
49723;BME280;43484;43.608;1.458;2024-01-30T08:10:36;100829.44;;;11.07;100.00
49723;BME280;43484;43.608;1.458;2024-01-30T08:13:03;100821.50;;;11.01;100.00
49723;BME280;43484;43.608;1.458;2024-01-30T08:15:29;100826.34;;;11.14;100.00
49723;BME280;43484;43.608;1.458;2024-01-30T08:17:56;100817.88;;;11.17;100.00
49723;BME280;43484;43.608;1.458;2024-01-30T08:20:25;100817.16;;;11.19;100.00
49723;BME280;43484;43.608;1.458;2024-01-30T08:22:52;100824.00;;;11.20;100.00
49723;BME280;43484;43.608;1.458;2024-01-30T08:25:18;100812.84;;;11.39;100.00
49723;BME280;43484;43.608;1.458;2024-01-30T08:27:45;100813.91;;;11.44;100.00
49723;BME280;43484;43.608;1.458;2024-01-30T08:30:12;100813.91;;;11.44;100.00
49723;BME280;43484;43.608;1.458;2024-01-30T08:32:39;100809.47;;;11.40;100.00
49723;BME280;43484;43.608;1.458;2024-01-30T08:35:06;100814.47;;;11.37;100.00
49723;BME280;43484;43.608;1.458;2024-01-30T08:37:33;100819.25;;;11.49;100.00
49723;BME280;43484;43.608;1.458;2024-01-30T08:40:00;100820.63;;;11.61;100.00
49723;BME280;43484;43.608;1.458;2024-01-30T08:42:28;100814.66;;;11.62;100.00
49723;BME280;43484;43.608;1.458;2024-01-30T08:44:55;100809.75;;;11.67;100.00
49723;BME280;43484;43.608;1.458;2024-01-30T08:47:22;100810.31;;;11.80;100.00
49723;BME280;43484;43.608;1.458;2024-01-30T08:49:49;100807.09;;;11.86;100.00
49723;BME280;43484;43.608;1.458;2024-01-30T08:52:16;100792.41;;;11.82;100.00
49723;BME280;43484;43.608;1.458;2024-01-30T08:54:43;100785.25;;;11.95;100.00
49723;BME280;43484;43.608;1.458;2024-01-30T08:57:10;100781.91;;;11.98;100.00
49723;BME280;43484;43.608;1.458;2024-01-30T08:59:37;100789.78;;;12.02;100.00
49723;BME280;43484;43.608;1.458;2024-01-30T09:02:03;100788.56;;;12.15;100.00
49723;BME280;43484;43.608;1.458;2024-01-30T09:04:38;100789.41;;;12.14;100.00
49723;BME280;43484;43.608;1.458;2024-01-30T09:07:06;100791.31;;;12.19;100.00
49723;BME280;43484;43.608;1.458;2024-01-30T09:09:38;100788.09;;;12.25;100.00
49723;BME280;43484;43.608;1.458;2024-01-30T09:12:06;100782.84;;;12.22;100.00
49723;BME280;43484;43.608;1.458;2024-01-30T09:14:36;100789.72;;;12.23;100.00
49723;BME280;43484;43.608;1.458;2024-01-30T09:17:03;100797.53;;;12.26;100.00
49723;BME280;43484;43.608;1.458;2024-01-30T09:19:30;100797.75;;;12.30;100.00
49723;BME280;43484;43.608;1.458;2024-01-30T09:21:57;100803.25;;;12.41;100.00
49723;BME280;43484;43.608;1.458;2024-01-30T09:24:26;100802.47;;;12.42;100.00
49723;BME280;43484;43.608;1.458;2024-01-30T09:26:53;100805.25;;;12.48;100.00
49723;BME280;43484;43.608;1.458;2024-01-30T09:29:19;100806.03;;;12.45;100.00
49723;BME280;43484;43.608;1.458;2024-01-30T09:31:47;100808.63;;;12.47;100.00
49723;BME280;43484;43.608;1.458;2024-01-30T09:34:14;100812.63;;;12.39;100.00
49723;BME280;43484;43.608;1.458;2024-01-30T09:36:41;100823.00;;;12.42;100.00
49723;BME280;43484;43.608;1.458;2024-01-30T09:39:07;100822.22;;;12.44;100.00
49723;BME280;43484;43.608;1.458;2024-01-30T09:41:41;100822.44;;;12.49;100.00
49723;BME280;43484;43.608;1.458;2024-01-30T09:44:11;100827.78;;;12.55;100.00
49723;BME280;43484;43.608;1.458;2024-01-30T09:46:38;100843.22;;;12.55;100.00
49723;BME280;43484;43.608;1.458;2024-01-30T09:49:06;100844.16;;;12.57;100.00
49723;BME280;43484;43.608;1.458;2024-01-30T09:51:34;100862.88;;;12.54;100.00
49723;BME280;43484;43.608;1.458;2024-01-30T09:54:02;100868.31;;;12.62;100.00
49723;BME280;43484;43.608;1.458;2024-01-30T09:56:29;100896.59;;;12.62;100.00
49723;BME280;43484;43.608;1.458;2024-01-30T09:58:56;100911.31;;;12.66;100.00
49723;BME280;43484;43.608;1.458;2024-01-30T10:01:23;100901.44;;;12.77;100.00
49723;BME280;43484;43.608;1.458;2024-01-30T10:03:51;100916.66;;;12.71;100.00
49723;BME280;43484;43.608;1.458;2024-01-30T10:06:19;100927.78;;;12.71;100.00
49723;BME280;43484;43.608;1.458;2024-01-30T10:08:49;100942.31;;;12.69;100.00
49723;BME280;43484;43.608;1.458;2024-01-30T10:11:15;100956.25;;;12.76;100.00
49723;BME280;43484;43.608;1.458;2024-01-30T10:13:42;100962.19;;;12.75;100.00
49723;BME280;43484;43.608;1.458;2024-01-30T10:16:09;100959.47;;;12.70;100.00
49723;BME280;43484;43.608;1.458;2024-01-30T10:18:35;100969.06;;;12.74;100.00
49723;BME280;43484;43.608;1.458;2024-01-30T10:21:02;100963.16;;;12.77;100.00
49723;BME280;43484;43.608;1.458;2024-01-30T10:23:29;100952.88;;;12.77;100.00
49723;BME280;43484;43.608;1.458;2024-01-30T10:26:03;100967.72;;;12.84;100.00
49723;BME280;43484;43.608;1.458;2024-01-30T10:28:30;100984.19;;;12.89;100.00
49723;BME280;43484;43.608;1.458;2024-01-30T10:31:00;100986.50;;;13.03;100.00
49723;BME280;43484;43.608;1.458;2024-01-30T10:33:31;100998.31;;;13.00;100.00
49723;BME280;43484;43.608;1.458;2024-01-30T10:36:03;101013.41;;;12.91;100.00
49723;BME280;43484;43.608;1.458;2024-01-30T10:38:32;100996.63;;;13.00;100.00
49723;BME280;43484;43.608;1.458;2024-01-30T10:41:02;100993.34;;;13.03;100.00
49723;BME280;43484;43.608;1.458;2024-01-30T10:43:41;100998.88;;;13.13;100.00
49723;BME280;43484;43.608;1.458;2024-01-30T10:46:18;101001.66;;;13.18;100.00
49723;BME280;43484;43.608;1.458;2024-01-30T10:48:57;101005.31;;;13.24;100.00
49723;BME280;43484;43.608;1.458;2024-01-30T10:51:26;101027.66;;;13.25;100.00
49723;BME280;43484;43.608;1.458;2024-01-30T10:53:55;101027.66;;;13.25;100.00
49723;BME280;43484;43.608;1.458;2024-01-30T10:56:24;101051.63;;;13.24;100.00
49723;BME280;43484;43.608;1.458;2024-01-30T10:58:53;101051.44;;;13.42;100.00
49723;BME280;43484;43.608;1.458;2024-01-30T11:01:20;101053.97;;;13.40;100.00
49723;BME280;43484;43.608;1.458;2024-01-30T11:03:50;101069.47;;;13.42;100.00
49723;BME280;43484;43.608;1.458;2024-01-30T11:06:18;101072.44;;;13.52;100.00
49723;BME280;43484;43.608;1.458;2024-01-30T11:08:45;101082.63;;;13.49;100.00
49723;BME280;43484;43.608;1.458;2024-01-30T11:11:12;101087.84;;;13.51;100.00
49723;BME280;43484;43.608;1.458;2024-01-30T11:13:43;101082.78;;;13.54;100.00
49723;BME280;43484;43.608;1.458;2024-01-30T11:16:11;101076.06;;;13.57;100.00
49723;BME280;43484;43.608;1.458;2024-01-30T11:18:37;101083.91;;;13.60;100.00
49723;BME280;43484;43.608;1.458;2024-01-30T11:21:04;101076.13;;;13.59;100.00
49723;BME280;43484;43.608;1.458;2024-01-30T11:23:33;101075.78;;;13.73;100.00
49723;BME280;43484;43.608;1.458;2024-01-30T11:26:00;101078.38;;;13.73;100.00
49723;BME280;43484;43.608;1.458;2024-01-30T11:28:32;101083.50;;;13.73;100.00
49723;BME280;43484;43.608;1.458;2024-01-30T11:31:04;101095.41;;;13.70;100.00
49723;BME280;43484;43.608;1.458;2024-01-30T11:33:31;101107.78;;;13.80;100.00
49723;BME280;43484;43.608;1.458;2024-01-30T11:36:01;101134.47;;;13.82;100.00
49723;BME280;43484;43.608;1.458;2024-01-30T11:38:28;101131.97;;;13.83;100.00
49723;BME280;43484;43.608;1.458;2024-01-30T11:40:55;101140.00;;;13.91;100.00
49723;BME280;43484;43.608;1.458;2024-01-30T11:43:25;101155.44;;;13.91;100.00
49723;BME280;43484;43.608;1.458;2024-01-30T11:45:51;101166.50;;;13.88;100.00
49723;BME280;43484;43.608;1.458;2024-01-30T11:48:19;101172.69;;;13.94;100.00
49723;BME280;43484;43.608;1.458;2024-01-30T11:50:46;101171.00;;;13.94;100.00
49723;BME280;43484;43.608;1.458;2024-01-30T11:53:13;101166.91;;;13.99;100.00
49723;BME280;43484;43.608;1.458;2024-01-30T11:55:40;101168.09;;;14.09;100.00
49723;BME280;43484;43.608;1.458;2024-01-30T11:58:07;101172.22;;;14.04;100.00
49723;BME280;43484;43.608;1.458;2024-01-30T12:00:33;101171.56;;;14.09;100.00
49723;BME280;43484;43.608;1.458;2024-01-30T12:03:02;101150.06;;;14.09;100.00
49723;BME280;43484;43.608;1.458;2024-01-30T12:05:30;101156.09;;;14.09;100.00
49723;BME280;43484;43.608;1.458;2024-01-30T12:07:57;101165.22;;;14.23;100.00
49723;BME280;43484;43.608;1.458;2024-01-30T12:10:28;101179.19;;;14.28;100.00
49723;BME280;43484;43.608;1.458;2024-01-30T12:12:55;101194.03;;;14.35;100.00
49723;BME280;43484;43.608;1.458;2024-01-30T12:15:23;101208.63;;;14.35;100.00
49723;BME280;43484;43.608;1.458;2024-01-30T12:17:51;101212.63;;;14.27;100.00
49723;BME280;43484;43.608;1.458;2024-01-30T12:20:21;101206.16;;;14.38;100.00
49723;BME280;43484;43.608;1.458;2024-01-30T12:22:49;101205.56;;;14.45;100.00
49723;BME280;43484;43.608;1.458;2024-01-30T12:25:18;101201.31;;;14.47;100.00
49723;BME280;43484;43.608;1.458;2024-01-30T12:27:46;101195.25;;;14.45;100.00
49723;BME280;43484;43.608;1.458;2024-01-30T12:30:19;101183.34;;;14.48;100.00
49723;BME280;43484;43.608;1.458;2024-01-30T12:32:49;101193.81;;;14.53;100.00
49723;BME280;43484;43.608;1.458;2024-01-30T12:35:18;101191.25;;;14.53;100.00
49723;BME280;43484;43.608;1.458;2024-01-30T12:37:47;101190.44;;;14.55;100.00
49723;BME280;43484;43.608;1.458;2024-01-30T12:40:14;101192.38;;;14.61;100.00
49723;BME280;43484;43.608;1.458;2024-01-30T12:42:42;101197.59;;;14.62;100.00